sensor_id;sensor_type;location;lat;lon;timestamp;P1;durP1;ratioP1;P2;durP2;ratioP2
26698;SDS011;14313;50.892;13.756;2022-09-03T00:01:53;0.90;;;0.60;;
26698;SDS011;14313;50.892;13.756;2022-09-03T00:04:36;1.65;;;0.70;;
26698;SDS011;14313;50.892;13.756;2022-09-03T00:07:10;2.42;;;0.70;;
26698;SDS011;14313;50.892;13.756;2022-09-03T00:09:42;0.90;;;0.65;;
26698;SDS011;14313;50.892;13.756;2022-09-03T00:12:14;2.97;;;0.85;;
26698;SDS011;14313;50.892;13.756;2022-09-03T00:14:54;1.92;;;0.70;;
26698;SDS011;14313;50.892;13.756;2022-09-03T00:17:26;5.18;;;0.60;;
26698;SDS011;14313;50.892;13.756;2022-09-03T00:20:00;3.33;;;0.70;;
26698;SDS011;14313;50.892;13.756;2022-09-03T00:22:34;2.05;;;0.50;;
26698;SDS011;14313;50.892;13.756;2022-09-03T00:25:04;1.92;;;0.52;;
26698;SDS011;14313;50.892;13.756;2022-09-03T00:27:37;2.63;;;0.95;;
26698;SDS011;14313;50.892;13.756;2022-09-03T00:30:08;1.17;;;0.70;;
26698;SDS011;14313;50.892;13.756;2022-09-03T00:32:39;1.02;;;0.60;;
26698;SDS011;14313;50.892;13.756;2022-09-03T00:38:12;5.10;;;1.00;;
26698;SDS011;14313;50.892;13.756;2022-09-03T00:40:44;2.63;;;0.70;;
26698;SDS011;14313;50.892;13.756;2022-09-03T00:43:24;3.95;;;0.65;;
26698;SDS011;14313;50.892;13.756;2022-09-03T00:49:18;1.52;;;0.60;;
26698;SDS011;14313;50.892;13.756;2022-09-03T00:57:59;1.20;;;0.60;;
26698;SDS011;14313;50.892;13.756;2022-09-03T01:00:42;1.05;;;0.57;;
26698;SDS011;14313;50.892;13.756;2022-09-03T01:03:10;1.95;;;0.55;;
26698;SDS011;14313;50.892;13.756;2022-09-03T01:05:56;3.92;;;0.57;;
26698;SDS011;14313;50.892;13.756;2022-09-03T01:17:00;2.10;;;0.60;;
26698;SDS011;14313;50.892;13.756;2022-09-03T01:22:18;1.23;;;0.52;;
26698;SDS011;14313;50.892;13.756;2022-09-03T01:25:23;0.82;;;0.50;;
26698;SDS011;14313;50.892;13.756;2022-09-03T01:30:51;1.50;;;0.50;;
26698;SDS011;14313;50.892;13.756;2022-09-03T01:33:34;2.80;;;0.57;;
26698;SDS011;14313;50.892;13.756;2022-09-03T01:36:31;4.32;;;0.60;;
26698;SDS011;14313;50.892;13.756;2022-09-03T01:39:05;1.02;;;0.40;;
26698;SDS011;14313;50.892;13.756;2022-09-03T01:41:47;1.38;;;0.73;;
26698;SDS011;14313;50.892;13.756;2022-09-03T01:47:31;0.85;;;0.52;;
26698;SDS011;14313;50.892;13.756;2022-09-03T01:50:20;1.05;;;0.40;;
26698;SDS011;14313;50.892;13.756;2022-09-03T01:55:59;0.77;;;0.60;;
26698;SDS011;14313;50.892;13.756;2022-09-03T01:58:43;2.25;;;0.50;;
26698;SDS011;14313;50.892;13.756;2022-09-03T02:01:15;0.80;;;0.50;;
26698;SDS011;14313;50.892;13.756;2022-09-03T02:03:47;1.92;;;0.47;;
26698;SDS011;14313;50.892;13.756;2022-09-03T02:06:14;0.52;;;0.45;;
26698;SDS011;14313;50.892;13.756;2022-09-03T02:08:41;4.65;;;0.50;;
26698;SDS011;14313;50.892;13.756;2022-09-03T02:11:07;1.35;;;0.50;;
26698;SDS011;14313;50.892;13.756;2022-09-03T02:13:35;2.65;;;0.70;;
26698;SDS011;14313;50.892;13.756;2022-09-03T02:16:09;2.67;;;0.50;;
26698;SDS011;14313;50.892;13.756;2022-09-03T02:18:42;1.08;;;0.55;;
26698;SDS011;14313;50.892;13.756;2022-09-03T02:21:12;1.52;;;0.55;;
26698;SDS011;14313;50.892;13.756;2022-09-03T02:23:40;0.88;;;0.57;;
26698;SDS011;14313;50.892;13.756;2022-09-03T02:26:06;1.48;;;0.47;;
26698;SDS011;14313;50.892;13.756;2022-09-03T02:28:35;1.58;;;0.65;;
26698;SDS011;14313;50.892;13.756;2022-09-03T02:31:01;0.40;;;0.40;;
26698;SDS011;14313;50.892;13.756;2022-09-03T02:33:27;5.85;;;1.08;;
26698;SDS011;14313;50.892;13.756;2022-09-03T02:35:54;0.70;;;0.50;;
26698;SDS011;14313;50.892;13.756;2022-09-03T02:38:21;1.48;;;0.60;;
26698;SDS011;14313;50.892;13.756;2022-09-03T02:40:49;0.57;;;0.40;;
26698;SDS011;14313;50.892;13.756;2022-09-03T02:43:30;2.92;;;0.50;;
26698;SDS011;14313;50.892;13.756;2022-09-03T02:46:00;1.77;;;0.52;;
26698;SDS011;14313;50.892;13.756;2022-09-03T02:48:28;1.13;;;0.50;;
26698;SDS011;14313;50.892;13.756;2022-09-03T02:50:53;2.85;;;0.70;;
26698;SDS011;14313;50.892;13.756;2022-09-03T02:53:19;0.93;;;0.50;;
26698;SDS011;14313;50.892;13.756;2022-09-03T02:55:44;1.30;;;0.50;;
26698;SDS011;14313;50.892;13.756;2022-09-03T02:58:10;4.65;;;0.57;;
26698;SDS011;14313;50.892;13.756;2022-09-03T03:00:35;2.50;;;0.63;;
26698;SDS011;14313;50.892;13.756;2022-09-03T03:03:04;1.20;;;0.60;;
26698;SDS011;14313;50.892;13.756;2022-09-03T03:05:35;3.50;;;0.68;;
26698;SDS011;14313;50.892;13.756;2022-09-03T03:08:09;3.15;;;0.45;;
26698;SDS011;14313;50.892;13.756;2022-09-03T03:10:36;1.42;;;0.60;;
26698;SDS011;14313;50.892;13.756;2022-09-03T03:13:02;1.83;;;0.45;;
26698;SDS011;14313;50.892;13.756;2022-09-03T03:15:27;1.27;;;0.40;;
26698;SDS011;14313;50.892;13.756;2022-09-03T03:17:56;3.58;;;0.50;;
26698;SDS011;14313;50.892;13.756;2022-09-03T03:20:22;0.75;;;0.60;;
26698;SDS011;14313;50.892;13.756;2022-09-03T03:22:47;2.13;;;0.50;;
26698;SDS011;14313;50.892;13.756;2022-09-03T03:25:12;2.13;;;0.60;;
26698;SDS011;14313;50.892;13.756;2022-09-03T03:27:38;4.50;;;0.82;;
26698;SDS011;14313;50.892;13.756;2022-09-03T03:30:06;1.52;;;0.50;;
26698;SDS011;14313;50.892;13.756;2022-09-03T03:32:34;3.28;;;0.60;;
26698;SDS011;14313;50.892;13.756;2022-09-03T03:35:00;3.10;;;0.70;;
26698;SDS011;14313;50.892;13.756;2022-09-03T03:37:26;4.68;;;1.98;;
26698;SDS011;14313;50.892;13.756;2022-09-03T03:39:51;0.60;;;0.55;;
26698;SDS011;14313;50.892;13.756;2022-09-03T03:42:16;1.83;;;0.50;;
26698;SDS011;14313;50.892;13.756;2022-09-03T03:44:42;5.80;;;0.40;;
26698;SDS011;14313;50.892;13.756;2022-09-03T03:47:08;1.30;;;0.63;;
26698;SDS011;14313;50.892;13.756;2022-09-03T03:49:33;0.80;;;0.40;;
26698;SDS011;14313;50.892;13.756;2022-09-03T03:51:58;0.68;;;0.40;;
26698;SDS011;14313;50.892;13.756;2022-09-03T03:54:24;1.02;;;0.55;;
26698;SDS011;14313;50.892;13.756;2022-09-03T03:56:49;1.13;;;0.38;;
26698;SDS011;14313;50.892;13.756;2022-09-03T03:59:14;6.93;;;0.50;;
26698;SDS011;14313;50.892;13.756;2022-09-03T04:01:40;3.58;;;0.40;;
26698;SDS011;14313;50.892;13.756;2022-09-03T04:04:05;2.80;;;0.68;;
26698;SDS011;14313;50.892;13.756;2022-09-03T04:06:31;0.52;;;0.50;;
26698;SDS011;14313;50.892;13.756;2022-09-03T04:08:56;0.80;;;0.40;;
26698;SDS011;14313;50.892;13.756;2022-09-03T04:11:21;1.10;;;0.40;;
26698;SDS011;14313;50.892;13.756;2022-09-03T04:13:48;1.60;;;0.52;;
26698;SDS011;14313;50.892;13.756;2022-09-03T04:16:15;5.43;;;0.50;;
26698;SDS011;14313;50.892;13.756;2022-09-03T04:18:43;1.50;;;0.50;;
26698;SDS011;14313;50.892;13.756;2022-09-03T04:21:29;1.77;;;0.47;;
26698;SDS011;14313;50.892;13.756;2022-09-03T04:23:55;1.42;;;0.50;;
26698;SDS011;14313;50.892;13.756;2022-09-03T04:26:22;1.20;;;0.50;;
26698;SDS011;14313;50.892;13.756;2022-09-03T04:28:55;2.08;;;0.50;;
26698;SDS011;14313;50.892;13.756;2022-09-03T04:31:21;3.17;;;0.70;;
26698;SDS011;14313;50.892;13.756;2022-09-03T04:33:47;3.35;;;0.60;;
26698;SDS011;14313;50.892;13.756;2022-09-03T04:36:16;2.72;;;0.60;;
26698;SDS011;14313;50.892;13.756;2022-09-03T04:38:44;2.92;;;0.50;;
26698;SDS011;14313;50.892;13.756;2022-09-03T04:41:12;3.13;;;0.57;;
26698;SDS011;14313;50.892;13.756;2022-09-03T04:43:40;3.88;;;1.10;;
26698;SDS011;14313;50.892;13.756;2022-09-03T04:46:07;12.50;;;6.75;;
26698;SDS011;14313;50.892;13.756;2022-09-03T04:48:34;3.97;;;2.72;;
26698;SDS011;14313;50.892;13.756;2022-09-03T04:51:02;3.70;;;1.40;;
26698;SDS011;14313;50.892;13.756;2022-09-03T04:53:30;9.02;;;3.38;;
26698;SDS011;14313;50.892;13.756;2022-09-03T04:55:59;2.92;;;0.90;;
26698;SDS011;14313;50.892;13.756;2022-09-03T04:58:24;2.88;;;1.10;;
26698;SDS011;14313;50.892;13.756;2022-09-03T05:00:50;2.10;;;0.95;;
26698;SDS011;14313;50.892;13.756;2022-09-03T05:03:16;4.95;;;1.20;;
26698;SDS011;14313;50.892;13.756;2022-09-03T05:05:41;3.15;;;1.70;;
26698;SDS011;14313;50.892;13.756;2022-09-03T05:08:07;6.78;;;1.40;;
26698;SDS011;14313;50.892;13.756;2022-09-03T05:10:32;5.03;;;1.48;;
26698;SDS011;14313;50.892;13.756;2022-09-03T05:12:59;2.53;;;1.35;;
26698;SDS011;14313;50.892;13.756;2022-09-03T05:15:26;3.10;;;1.08;;
26698;SDS011;14313;50.892;13.756;2022-09-03T05:17:55;10.05;;;1.10;;
26698;SDS011;14313;50.892;13.756;2022-09-03T05:20:22;3.30;;;1.00;;
26698;SDS011;14313;50.892;13.756;2022-09-03T05:22:47;7.80;;;2.30;;
26698;SDS011;14313;50.892;13.756;2022-09-03T05:25:13;8.95;;;2.15;;
26698;SDS011;14313;50.892;13.756;2022-09-03T05:27:38;6.22;;;1.77;;
26698;SDS011;14313;50.892;13.756;2022-09-03T05:30:03;7.10;;;3.00;;
26698;SDS011;14313;50.892;13.756;2022-09-03T05:32:29;7.10;;;2.53;;
26698;SDS011;14313;50.892;13.756;2022-09-03T05:34:55;8.70;;;2.95;;
26698;SDS011;14313;50.892;13.756;2022-09-03T05:37:21;6.63;;;3.33;;
26698;SDS011;14313;50.892;13.756;2022-09-03T05:39:47;8.25;;;3.40;;
26698;SDS011;14313;50.892;13.756;2022-09-03T05:42:12;9.25;;;2.70;;
26698;SDS011;14313;50.892;13.756;2022-09-03T05:44:39;5.65;;;1.90;;
26698;SDS011;14313;50.892;13.756;2022-09-03T05:47:04;7.88;;;3.33;;
26698;SDS011;14313;50.892;13.756;2022-09-03T05:49:30;4.70;;;2.83;;
26698;SDS011;14313;50.892;13.756;2022-09-03T05:51:56;6.43;;;3.13;;
26698;SDS011;14313;50.892;13.756;2022-09-03T05:54:21;3.67;;;2.65;;
26698;SDS011;14313;50.892;13.756;2022-09-03T05:56:47;10.02;;;3.00;;
26698;SDS011;14313;50.892;13.756;2022-09-03T05:59:12;9.68;;;2.50;;
26698;SDS011;14313;50.892;13.756;2022-09-03T06:01:38;16.40;;;3.22;;
26698;SDS011;14313;50.892;13.756;2022-09-03T06:04:10;5.82;;;2.05;;
26698;SDS011;14313;50.892;13.756;2022-09-03T06:06:38;5.57;;;1.90;;
26698;SDS011;14313;50.892;13.756;2022-09-03T06:09:05;4.50;;;1.70;;
26698;SDS011;14313;50.892;13.756;2022-09-03T06:11:33;4.25;;;1.63;;
26698;SDS011;14313;50.892;13.756;2022-09-03T06:13:59;6.00;;;2.08;;
26698;SDS011;14313;50.892;13.756;2022-09-03T06:16:29;2.35;;;1.67;;
26698;SDS011;14313;50.892;13.756;2022-09-03T06:18:55;2.70;;;1.60;;
26698;SDS011;14313;50.892;13.756;2022-09-03T06:21:20;1.23;;;1.10;;
26698;SDS011;14313;50.892;13.756;2022-09-03T06:23:49;3.33;;;1.60;;
26698;SDS011;14313;50.892;13.756;2022-09-03T06:26:16;2.88;;;1.00;;
26698;SDS011;14313;50.892;13.756;2022-09-03T06:28:42;3.05;;;1.02;;
26698;SDS011;14313;50.892;13.756;2022-09-03T06:31:09;3.70;;;0.90;;
26698;SDS011;14313;50.892;13.756;2022-09-03T06:33:36;4.40;;;0.80;;
26698;SDS011;14313;50.892;13.756;2022-09-03T06:36:04;4.70;;;1.05;;
26698;SDS011;14313;50.892;13.756;2022-09-03T06:38:31;5.13;;;0.68;;
26698;SDS011;14313;50.892;13.756;2022-09-03T06:41:00;5.57;;;0.60;;
26698;SDS011;14313;50.892;13.756;2022-09-03T06:43:28;1.10;;;0.50;;
26698;SDS011;14313;50.892;13.756;2022-09-03T06:45:55;1.58;;;0.60;;
26698;SDS011;14313;50.892;13.756;2022-09-03T06:48:22;3.53;;;0.52;;
26698;SDS011;14313;50.892;13.756;2022-09-03T06:50:57;1.80;;;0.70;;
26698;SDS011;14313;50.892;13.756;2022-09-03T06:53:30;2.55;;;0.50;;
26698;SDS011;14313;50.892;13.756;2022-09-03T06:55:59;3.35;;;0.50;;
26698;SDS011;14313;50.892;13.756;2022-09-03T06:58:33;1.40;;;0.50;;
26698;SDS011;14313;50.892;13.756;2022-09-03T07:01:08;3.05;;;0.40;;
26698;SDS011;14313;50.892;13.756;2022-09-03T07:03:37;1.88;;;0.50;;
26698;SDS011;14313;50.892;13.756;2022-09-03T07:06:04;2.28;;;0.52;;
26698;SDS011;14313;50.892;13.756;2022-09-03T07:08:31;1.60;;;0.50;;
26698;SDS011;14313;50.892;13.756;2022-09-03T07:10:58;0.93;;;0.40;;
26698;SDS011;14313;50.892;13.756;2022-09-03T07:13:25;3.50;;;1.17;;
26698;SDS011;14313;50.892;13.756;2022-09-03T07:15:58;3.08;;;0.60;;
26698;SDS011;14313;50.892;13.756;2022-09-03T07:18:31;5.30;;;0.60;;
26698;SDS011;14313;50.892;13.756;2022-09-03T07:21:01;4.88;;;0.77;;
26698;SDS011;14313;50.892;13.756;2022-09-03T07:23:31;5.00;;;0.65;;
26698;SDS011;14313;50.892;13.756;2022-09-03T07:25:58;3.95;;;0.80;;
26698;SDS011;14313;50.892;13.756;2022-09-03T07:28:25;1.85;;;0.50;;
26698;SDS011;14313;50.892;13.756;2022-09-03T07:30:51;2.58;;;0.73;;
26698;SDS011;14313;50.892;13.756;2022-09-03T07:33:17;2.60;;;0.88;;
26698;SDS011;14313;50.892;13.756;2022-09-03T07:35:43;1.25;;;0.63;;
26698;SDS011;14313;50.892;13.756;2022-09-03T07:38:09;3.85;;;1.30;;
26698;SDS011;14313;50.892;13.756;2022-09-03T07:40:35;2.15;;;0.60;;
26698;SDS011;14313;50.892;13.756;2022-09-03T07:43:01;1.45;;;0.77;;
26698;SDS011;14313;50.892;13.756;2022-09-03T07:45:28;5.82;;;0.98;;
26698;SDS011;14313;50.892;13.756;2022-09-03T07:47:53;18.80;;;2.03;;
26698;SDS011;14313;50.892;13.756;2022-09-03T07:50:19;8.52;;;1.00;;
26698;SDS011;14313;50.892;13.756;2022-09-03T07:52:44;4.45;;;0.70;;
26698;SDS011;14313;50.892;13.756;2022-09-03T07:55:11;5.60;;;0.98;;
26698;SDS011;14313;50.892;13.756;2022-09-03T07:57:37;3.10;;;0.70;;
26698;SDS011;14313;50.892;13.756;2022-09-03T08:00:03;11.43;;;1.10;;
26698;SDS011;14313;50.892;13.756;2022-09-03T08:02:36;6.97;;;1.00;;
26698;SDS011;14313;50.892;13.756;2022-09-03T08:05:02;2.92;;;0.82;;
26698;SDS011;14313;50.892;13.756;2022-09-03T08:07:28;1.30;;;0.40;;
26698;SDS011;14313;50.892;13.756;2022-09-03T08:09:54;7.07;;;0.90;;
26698;SDS011;14313;50.892;13.756;2022-09-03T08:12:19;2.40;;;0.70;;
26698;SDS011;14313;50.892;13.756;2022-09-03T08:14:44;5.80;;;0.75;;
26698;SDS011;14313;50.892;13.756;2022-09-03T08:17:10;3.90;;;0.90;;
26698;SDS011;14313;50.892;13.756;2022-09-03T08:19:36;11.00;;;1.88;;
26698;SDS011;14313;50.892;13.756;2022-09-03T08:22:01;5.97;;;0.70;;
26698;SDS011;14313;50.892;13.756;2022-09-03T08:24:27;2.17;;;0.70;;
26698;SDS011;14313;50.892;13.756;2022-09-03T08:26:52;3.13;;;0.70;;
26698;SDS011;14313;50.892;13.756;2022-09-03T08:29:18;1.33;;;0.63;;
26698;SDS011;14313;50.892;13.756;2022-09-03T08:31:44;7.28;;;0.90;;
26698;SDS011;14313;50.892;13.756;2022-09-03T08:34:10;1.13;;;0.60;;
26698;SDS011;14313;50.892;13.756;2022-09-03T08:36:37;1.83;;;0.80;;
26698;SDS011;14313;50.892;13.756;2022-09-03T08:39:06;3.95;;;0.90;;
26698;SDS011;14313;50.892;13.756;2022-09-03T08:41:43;8.68;;;1.02;;
26698;SDS011;14313;50.892;13.756;2022-09-03T08:44:28;14.90;;;1.00;;
26698;SDS011;14313;50.892;13.756;2022-09-03T08:47:00;1.20;;;0.77;;
26698;SDS011;14313;50.892;13.756;2022-09-03T08:49:45;4.53;;;1.33;;
26698;SDS011;14313;50.892;13.756;2022-09-03T08:52:21;2.03;;;0.80;;
26698;SDS011;14313;50.892;13.756;2022-09-03T08:54:48;3.28;;;0.90;;
26698;SDS011;14313;50.892;13.756;2022-09-03T08:57:16;3.63;;;0.93;;
26698;SDS011;14313;50.892;13.756;2022-09-03T08:59:44;7.72;;;0.88;;
26698;SDS011;14313;50.892;13.756;2022-09-03T09:05:13;1.02;;;0.60;;
26698;SDS011;14313;50.892;13.756;2022-09-03T09:07:49;6.28;;;0.90;;
26698;SDS011;14313;50.892;13.756;2022-09-03T09:10:30;4.78;;;0.70;;
26698;SDS011;14313;50.892;13.756;2022-09-03T09:21:41;4.40;;;0.90;;
26698;SDS011;14313;50.892;13.756;2022-09-03T09:24:20;2.30;;;0.80;;
26698;SDS011;14313;50.892;13.756;2022-09-03T09:26:52;1.38;;;0.70;;
26698;SDS011;14313;50.892;13.756;2022-09-03T09:29:23;3.42;;;0.73;;
26698;SDS011;14313;50.892;13.756;2022-09-03T09:31:53;1.45;;;0.80;;
26698;SDS011;14313;50.892;13.756;2022-09-03T09:34:19;4.35;;;1.73;;
26698;SDS011;14313;50.892;13.756;2022-09-03T09:36:46;2.67;;;0.90;;
26698;SDS011;14313;50.892;13.756;2022-09-03T09:39:14;1.95;;;0.63;;
26698;SDS011;14313;50.892;13.756;2022-09-03T09:41:53;1.90;;;0.60;;
26698;SDS011;14313;50.892;13.756;2022-09-03T09:44:23;4.05;;;0.70;;
26698;SDS011;14313;50.892;13.756;2022-09-03T09:46:50;1.77;;;0.90;;
26698;SDS011;14313;50.892;13.756;2022-09-03T09:49:29;1.67;;;0.98;;
26698;SDS011;14313;50.892;13.756;2022-09-03T09:52:09;2.95;;;0.75;;
26698;SDS011;14313;50.892;13.756;2022-09-03T09:54:36;5.50;;;0.90;;
26698;SDS011;14313;50.892;13.756;2022-09-03T09:57:04;1.58;;;0.88;;
26698;SDS011;14313;50.892;13.756;2022-09-03T09:59:31;2.17;;;0.65;;
26698;SDS011;14313;50.892;13.756;2022-09-03T10:02:10;2.00;;;0.60;;
26698;SDS011;14313;50.892;13.756;2022-09-03T10:04:37;2.15;;;0.70;;
26698;SDS011;14313;50.892;13.756;2022-09-03T10:07:04;1.77;;;0.70;;
26698;SDS011;14313;50.892;13.756;2022-09-03T10:09:44;1.55;;;0.60;;
26698;SDS011;14313;50.892;13.756;2022-09-03T10:13:11;4.22;;;0.82;;
26698;SDS011;14313;50.892;13.756;2022-09-03T10:15:16;1.00;;;0.50;;
26698;SDS011;14313;50.892;13.756;2022-09-03T10:17:44;5.35;;;0.75;;
26698;SDS011;14313;50.892;13.756;2022-09-03T10:20:33;1.50;;;0.55;;
26698;SDS011;14313;50.892;13.756;2022-09-03T10:23:15;5.13;;;0.60;;
26698;SDS011;14313;50.892;13.756;2022-09-03T10:26:04;3.17;;;0.82;;
26698;SDS011;14313;50.892;13.756;2022-09-03T10:28:35;1.00;;;0.60;;
26698;SDS011;14313;50.892;13.756;2022-09-03T10:31:22;2.42;;;0.52;;
26698;SDS011;14313;50.892;13.756;2022-09-03T10:33:59;2.13;;;0.63;;
26698;SDS011;14313;50.892;13.756;2022-09-03T10:36:35;0.70;;;0.60;;
26698;SDS011;14313;50.892;13.756;2022-09-03T10:39:12;3.78;;;0.63;;
26698;SDS011;14313;50.892;13.756;2022-09-03T10:42:04;3.85;;;0.60;;
26698;SDS011;14313;50.892;13.756;2022-09-03T10:44:55;1.00;;;0.60;;
26698;SDS011;14313;50.892;13.756;2022-09-03T10:47:30;1.35;;;0.80;;
26698;SDS011;14313;50.892;13.756;2022-09-03T10:50:22;1.23;;;0.50;;
26698;SDS011;14313;50.892;13.756;2022-09-03T10:53:00;1.15;;;0.60;;
26698;SDS011;14313;50.892;13.756;2022-09-03T10:58:15;3.10;;;0.60;;
26698;SDS011;14313;50.892;13.756;2022-09-03T11:01:01;1.10;;;0.40;;
26698;SDS011;14313;50.892;13.756;2022-09-03T11:03:42;5.10;;;0.80;;
26698;SDS011;14313;50.892;13.756;2022-09-03T11:06:11;6.75;;;0.80;;
26698;SDS011;14313;50.892;13.756;2022-09-03T11:08:57;3.38;;;0.68;;
26698;SDS011;14313;50.892;13.756;2022-09-03T11:11:31;4.18;;;0.60;;
26698;SDS011;14313;50.892;13.756;2022-09-03T11:14:08;3.00;;;0.70;;
26698;SDS011;14313;50.892;13.756;2022-09-03T11:16:36;7.03;;;0.82;;
26698;SDS011;14313;50.892;13.756;2022-09-03T11:19:06;5.18;;;0.77;;
26698;SDS011;14313;50.892;13.756;2022-09-03T11:21:37;2.13;;;0.70;;
26698;SDS011;14313;50.892;13.756;2022-09-03T11:26:31;1.83;;;0.45;;
26698;SDS011;14313;50.892;13.756;2022-09-03T11:29:07;3.45;;;0.60;;
26698;SDS011;14313;50.892;13.756;2022-09-03T11:31:45;4.03;;;0.60;;
26698;SDS011;14313;50.892;13.756;2022-09-03T11:34:24;1.95;;;0.60;;
26698;SDS011;14313;50.892;13.756;2022-09-03T11:37:03;1.23;;;0.80;;
26698;SDS011;14313;50.892;13.756;2022-09-03T11:41:56;0.63;;;0.43;;
26698;SDS011;14313;50.892;13.756;2022-09-03T11:44:23;1.75;;;0.70;;
26698;SDS011;14313;50.892;13.756;2022-09-03T11:46:52;4.20;;;0.55;;
26698;SDS011;14313;50.892;13.756;2022-09-03T11:49:27;1.05;;;0.40;;
26698;SDS011;14313;50.892;13.756;2022-09-03T11:52:00;2.80;;;0.50;;
26698;SDS011;14313;50.892;13.756;2022-09-03T11:54:30;1.55;;;0.60;;
26698;SDS011;14313;50.892;13.756;2022-09-03T11:57:11;2.63;;;0.50;;
26698;SDS011;14313;50.892;13.756;2022-09-03T11:59:39;2.25;;;0.52;;
26698;SDS011;14313;50.892;13.756;2022-09-03T12:10:55;4.47;;;0.80;;
26698;SDS011;14313;50.892;13.756;2022-09-03T12:16:11;2.08;;;0.50;;
26698;SDS011;14313;50.892;13.756;2022-09-03T12:18:44;1.25;;;0.52;;
26698;SDS011;14313;50.892;13.756;2022-09-03T12:21:15;1.40;;;0.50;;
26698;SDS011;14313;50.892;13.756;2022-09-03T12:23:41;1.15;;;0.60;;
26698;SDS011;14313;50.892;13.756;2022-09-03T12:26:16;3.00;;;0.55;;
26698;SDS011;14313;50.892;13.756;2022-09-03T12:28:48;3.63;;;0.80;;
26698;SDS011;14313;50.892;13.756;2022-09-03T12:31:22;0.77;;;0.43;;
26698;SDS011;14313;50.892;13.756;2022-09-03T12:33:59;1.65;;;0.60;;
26698;SDS011;14313;50.892;13.756;2022-09-03T12:36:43;0.85;;;0.50;;
26698;SDS011;14313;50.892;13.756;2022-09-03T12:39:24;2.30;;;0.60;;
26698;SDS011;14313;50.892;13.756;2022-09-03T12:41:55;5.10;;;0.98;;
26698;SDS011;14313;50.892;13.756;2022-09-03T12:44:29;3.28;;;0.82;;
26698;SDS011;14313;50.892;13.756;2022-09-03T12:47:02;3.13;;;0.77;;
26698;SDS011;14313;50.892;13.756;2022-09-03T12:49:38;2.95;;;0.88;;
26698;SDS011;14313;50.892;13.756;2022-09-03T12:52:15;3.15;;;0.60;;
26698;SDS011;14313;50.892;13.756;2022-09-03T12:54:49;3.50;;;0.60;;
26698;SDS011;14313;50.892;13.756;2022-09-03T12:57:33;1.00;;;0.40;;
26698;SDS011;14313;50.892;13.756;2022-09-03T13:00:07;3.65;;;0.65;;
26698;SDS011;14313;50.892;13.756;2022-09-03T13:02:38;2.60;;;0.50;;
26698;SDS011;14313;50.892;13.756;2022-09-03T13:05:17;2.00;;;0.80;;
26698;SDS011;14313;50.892;13.756;2022-09-03T13:07:47;0.85;;;0.52;;
26698;SDS011;14313;50.892;13.756;2022-09-03T13:10:29;1.80;;;0.60;;
26698;SDS011;14313;50.892;13.756;2022-09-03T13:12:58;4.00;;;0.63;;
26698;SDS011;14313;50.892;13.756;2022-09-03T13:15:25;1.88;;;0.60;;
26698;SDS011;14313;50.892;13.756;2022-09-03T13:23:52;4.22;;;0.90;;
26698;SDS011;14313;50.892;13.756;2022-09-03T13:29:46;1.35;;;0.40;;
26698;SDS011;14313;50.892;13.756;2022-09-03T13:35:12;1.85;;;0.50;;
26698;SDS011;14313;50.892;13.756;2022-09-03T13:37:48;2.45;;;0.70;;
26698;SDS011;14313;50.892;13.756;2022-09-03T13:40:45;4.38;;;0.50;;
26698;SDS011;14313;50.892;13.756;2022-09-03T13:46:37;1.17;;;0.52;;
26698;SDS011;14313;50.892;13.756;2022-09-03T13:52:07;2.30;;;0.40;;
26698;SDS011;14313;50.892;13.756;2022-09-03T13:54:44;2.40;;;0.60;;
26698;SDS011;14313;50.892;13.756;2022-09-03T13:57:21;2.78;;;0.55;;
26698;SDS011;14313;50.892;13.756;2022-09-03T14:00:07;1.08;;;0.40;;
26698;SDS011;14313;50.892;13.756;2022-09-03T14:08:34;2.15;;;0.40;;
26698;SDS011;14313;50.892;13.756;2022-09-03T14:20:12;1.70;;;0.70;;
26698;SDS011;14313;50.892;13.756;2022-09-03T14:25:56;0.90;;;0.40;;
26698;SDS011;14313;50.892;13.756;2022-09-03T14:28:28;4.32;;;0.40;;
26698;SDS011;14313;50.892;13.756;2022-09-03T14:31:00;5.00;;;0.50;;
26698;SDS011;14313;50.892;13.756;2022-09-03T14:33:38;4.43;;;0.60;;
26698;SDS011;14313;50.892;13.756;2022-09-03T14:36:36;0.90;;;0.50;;
26698;SDS011;14313;50.892;13.756;2022-09-03T14:44:41;2.65;;;0.70;;
26698;SDS011;14313;50.892;13.756;2022-09-03T14:47:29;2.78;;;0.52;;
26698;SDS011;14313;50.892;13.756;2022-09-03T14:50:27;5.68;;;0.50;;
26698;SDS011;14313;50.892;13.756;2022-09-03T15:01:49;2.63;;;0.40;;
26698;SDS011;14313;50.892;13.756;2022-09-03T15:04:50;1.30;;;0.40;;
26698;SDS011;14313;50.892;13.756;2022-09-03T15:07:35;0.85;;;0.32;;
26698;SDS011;14313;50.892;13.756;2022-09-03T15:10:12;2.15;;;0.50;;
26698;SDS011;14313;50.892;13.756;2022-09-03T15:12:47;0.57;;;0.40;;
26698;SDS011;14313;50.892;13.756;2022-09-03T15:15:19;1.65;;;0.57;;
26698;SDS011;14313;50.892;13.756;2022-09-03T15:25:57;4.30;;;0.43;;
26698;SDS011;14313;50.892;13.756;2022-09-03T15:28:48;2.13;;;0.50;;
26698;SDS011;14313;50.892;13.756;2022-09-03T15:31:42;2.15;;;0.50;;
26698;SDS011;14313;50.892;13.756;2022-09-03T15:36:54;2.35;;;0.50;;
26698;SDS011;14313;50.892;13.756;2022-09-03T15:39:30;1.88;;;0.70;;
26698;SDS011;14313;50.892;13.756;2022-09-03T15:41:59;2.95;;;0.60;;
26698;SDS011;14313;50.892;13.756;2022-09-03T15:44:46;1.73;;;0.60;;
26698;SDS011;14313;50.892;13.756;2022-09-03T15:53:03;1.50;;;0.50;;
26698;SDS011;14313;50.892;13.756;2022-09-03T15:55:40;1.45;;;0.60;;
26698;SDS011;14313;50.892;13.756;2022-09-03T16:00:50;2.80;;;0.70;;
26698;SDS011;14313;50.892;13.756;2022-09-03T16:06:42;1.55;;;0.70;;
26698;SDS011;14313;50.892;13.756;2022-09-03T16:09:29;5.35;;;0.63;;
26698;SDS011;14313;50.892;13.756;2022-09-03T16:18:00;1.27;;;0.57;;
26698;SDS011;14313;50.892;13.756;2022-09-03T16:20:45;3.35;;;0.70;;
26698;SDS011;14313;50.892;13.756;2022-09-03T16:26:14;1.85;;;0.60;;
26698;SDS011;14313;50.892;13.756;2022-09-03T16:28:54;2.13;;;1.00;;
26698;SDS011;14313;50.892;13.756;2022-09-03T16:31:41;4.95;;;1.02;;
26698;SDS011;14313;50.892;13.756;2022-09-03T16:34:35;3.53;;;0.70;;
26698;SDS011;14313;50.892;13.756;2022-09-03T16:37:08;2.30;;;0.50;;
26698;SDS011;14313;50.892;13.756;2022-09-03T16:39:50;4.15;;;0.73;;
26698;SDS011;14313;50.892;13.756;2022-09-03T16:42:33;1.70;;;0.75;;
26698;SDS011;14313;50.892;13.756;2022-09-03T16:45:18;2.42;;;0.60;;
26698;SDS011;14313;50.892;13.756;2022-09-03T16:47:54;3.15;;;0.52;;
26698;SDS011;14313;50.892;13.756;2022-09-03T16:53:39;4.85;;;0.68;;
26698;SDS011;14313;50.892;13.756;2022-09-03T16:59:19;2.08;;;0.52;;
26698;SDS011;14313;50.892;13.756;2022-09-03T17:01:56;2.63;;;0.70;;
26698;SDS011;14313;50.892;13.756;2022-09-03T17:07:37;3.03;;;0.68;;
26698;SDS011;14313;50.892;13.756;2022-09-03T17:10:19;2.50;;;0.85;;
26698;SDS011;14313;50.892;13.756;2022-09-03T17:15:46;3.30;;;0.60;;
26698;SDS011;14313;50.892;13.756;2022-09-03T17:21:25;2.92;;;0.70;;
26698;SDS011;14313;50.892;13.756;2022-09-03T17:24:16;2.35;;;0.57;;
26698;SDS011;14313;50.892;13.756;2022-09-03T17:29:43;2.40;;;0.65;;
26698;SDS011;14313;50.892;13.756;2022-09-03T17:32:37;1.85;;;0.80;;
26698;SDS011;14313;50.892;13.756;2022-09-03T17:35:28;2.97;;;0.45;;
26698;SDS011;14313;50.892;13.756;2022-09-03T17:44:01;4.07;;;2.33;;
26698;SDS011;14313;50.892;13.756;2022-09-03T17:49:46;5.55;;;2.90;;
26698;SDS011;14313;50.892;13.756;2022-09-03T17:55:32;1.92;;;0.85;;
26698;SDS011;14313;50.892;13.756;2022-09-03T17:58:16;1.52;;;1.08;;
26698;SDS011;14313;50.892;13.756;2022-09-03T18:06:24;2.83;;;1.20;;